sensor_id;sensor_type;location;lat;lon;timestamp;P1;durP1;ratioP1;P2;durP2;ratioP2
18647;SDS011;9453;50.294;18.644;2022-09-12T04:02:21;11.83;;;5.93;;
18647;SDS011;9453;50.294;18.644;2022-09-12T04:04:48;10.17;;;5.67;;
18647;SDS011;9453;50.294;18.644;2022-09-12T04:07:16;13.90;;;6.93;;
18647;SDS011;9453;50.294;18.644;2022-09-12T04:09:45;13.33;;;6.17;;
18647;SDS011;9453;50.294;18.644;2022-09-12T04:12:11;13.17;;;6.50;;
18647;SDS011;9453;50.294;18.644;2022-09-12T04:14:39;13.50;;;6.67;;
18647;SDS011;9453;50.294;18.644;2022-09-12T04:17:05;15.33;;;6.27;;
18647;SDS011;9453;50.294;18.644;2022-09-12T04:19:34;15.57;;;6.50;;
18647;SDS011;9453;50.294;18.644;2022-09-12T04:22:01;13.60;;;6.33;;
18647;SDS011;9453;50.294;18.644;2022-09-12T04:24:28;12.27;;;6.10;;
18647;SDS011;9453;50.294;18.644;2022-09-12T04:26:55;14.57;;;6.87;;
18647;SDS011;9453;50.294;18.644;2022-09-12T04:29:22;10.87;;;6.40;;
18647;SDS011;9453;50.294;18.644;2022-09-12T04:31:49;18.73;;;6.80;;
18647;SDS011;9453;50.294;18.644;2022-09-12T04:34:16;11.47;;;6.47;;
18647;SDS011;9453;50.294;18.644;2022-09-12T04:36:44;14.73;;;6.80;;
18647;SDS011;9453;50.294;18.644;2022-09-12T04:39:11;14.23;;;7.40;;
18647;SDS011;9453;50.294;18.644;2022-09-12T04:41:38;15.37;;;6.73;;
18647;SDS011;9453;50.294;18.644;2022-09-12T04:44:07;11.70;;;7.17;;
18647;SDS011;9453;50.294;18.644;2022-09-12T04:46:37;15.40;;;8.33;;
18647;SDS011;9453;50.294;18.644;2022-09-12T04:49:05;13.53;;;7.80;;
18647;SDS011;9453;50.294;18.644;2022-09-12T04:51:34;14.63;;;7.30;;
18647;SDS011;9453;50.294;18.644;2022-09-12T04:54:04;12.50;;;7.83;;
18647;SDS011;9453;50.294;18.644;2022-09-12T04:56:35;17.30;;;7.73;;
18647;SDS011;9453;50.294;18.644;2022-09-12T04:59:03;11.43;;;6.87;;
18647;SDS011;9453;50.294;18.644;2022-09-12T05:01:30;15.03;;;7.60;;
18647;SDS011;9453;50.294;18.644;2022-09-12T05:03:58;12.43;;;7.30;;
18647;SDS011;9453;50.294;18.644;2022-09-12T05:06:26;12.13;;;6.97;;
18647;SDS011;9453;50.294;18.644;2022-09-12T05:08:54;13.73;;;6.30;;
18647;SDS011;9453;50.294;18.644;2022-09-12T05:11:25;13.23;;;7.33;;
18647;SDS011;9453;50.294;18.644;2022-09-12T05:13:53;13.53;;;7.00;;
18647;SDS011;9453;50.294;18.644;2022-09-12T05:16:21;11.97;;;6.37;;
18647;SDS011;9453;50.294;18.644;2022-09-12T05:18:49;10.53;;;6.50;;
18647;SDS011;9453;50.294;18.644;2022-09-12T05:21:17;11.03;;;6.60;;
18647;SDS011;9453;50.294;18.644;2022-09-12T05:23:49;9.20;;;5.80;;
18647;SDS011;9453;50.294;18.644;2022-09-12T05:26:16;17.37;;;6.83;;
18647;SDS011;9453;50.294;18.644;2022-09-12T05:28:46;9.90;;;6.07;;
18647;SDS011;9453;50.294;18.644;2022-09-12T05:31:26;10.53;;;5.87;;
18647;SDS011;9453;50.294;18.644;2022-09-12T05:33:56;10.77;;;6.00;;
18647;SDS011;9453;50.294;18.644;2022-09-12T05:36:24;12.83;;;6.23;;
18647;SDS011;9453;50.294;18.644;2022-09-12T05:38:55;14.17;;;6.57;;
18647;SDS011;9453;50.294;18.644;2022-09-12T05:41:22;13.67;;;6.63;;
18647;SDS011;9453;50.294;18.644;2022-09-12T05:43:52;11.73;;;5.93;;
18647;SDS011;9453;50.294;18.644;2022-09-12T05:46:20;10.40;;;5.90;;
18647;SDS011;9453;50.294;18.644;2022-09-12T05:48:49;14.88;;;6.25;;
18647;SDS011;9453;50.294;18.644;2022-09-12T05:51:19;10.63;;;5.13;;
18647;SDS011;9453;50.294;18.644;2022-09-12T05:53:47;11.17;;;5.30;;
18647;SDS011;9453;50.294;18.644;2022-09-12T05:56:16;10.33;;;5.60;;
18647;SDS011;9453;50.294;18.644;2022-09-12T05:58:45;9.37;;;5.40;;
18647;SDS011;9453;50.294;18.644;2022-09-12T06:01:15;8.87;;;5.03;;
18647;SDS011;9453;50.294;18.644;2022-09-12T06:03:44;12.37;;;6.33;;
18647;SDS011;9453;50.294;18.644;2022-09-12T06:06:13;13.97;;;5.00;;
18647;SDS011;9453;50.294;18.644;2022-09-12T06:08:43;8.50;;;4.53;;
18647;SDS011;9453;50.294;18.644;2022-09-12T06:11:12;13.52;;;5.32;;
18647;SDS011;9453;50.294;18.644;2022-09-12T06:13:41;15.37;;;5.10;;
18647;SDS011;9453;50.294;18.644;2022-09-12T06:16:09;9.50;;;4.33;;
18647;SDS011;9453;50.294;18.644;2022-09-12T06:18:38;15.23;;;5.17;;
18647;SDS011;9453;50.294;18.644;2022-09-12T06:21:07;10.50;;;4.90;;
18647;SDS011;9453;50.294;18.644;2022-09-12T06:23:35;7.33;;;4.17;;
18647;SDS011;9453;50.294;18.644;2022-09-12T06:26:03;11.77;;;4.70;;
18647;SDS011;9453;50.294;18.644;2022-09-12T06:28:31;7.07;;;4.27;;
18647;SDS011;9453;50.294;18.644;2022-09-12T06:31:02;9.67;;;4.60;;
18647;SDS011;9453;50.294;18.644;2022-09-12T06:33:29;13.40;;;4.53;;
18647;SDS011;9453;50.294;18.644;2022-09-12T06:36:02;10.93;;;4.30;;
18647;SDS011;9453;50.294;18.644;2022-09-12T06:38:30;16.43;;;4.70;;
18647;SDS011;9453;50.294;18.644;2022-09-12T06:40:57;10.77;;;5.10;;
18647;SDS011;9453;50.294;18.644;2022-09-12T06:43:24;11.07;;;4.70;;
18647;SDS011;9453;50.294;18.644;2022-09-12T06:45:52;9.17;;;4.67;;
18647;SDS011;9453;50.294;18.644;2022-09-12T06:48:19;13.53;;;4.73;;
18647;SDS011;9453;50.294;18.644;2022-09-12T06:50:53;15.20;;;4.67;;
18647;SDS011;9453;50.294;18.644;2022-09-12T06:53:24;8.27;;;4.53;;
18647;SDS011;9453;50.294;18.644;2022-09-12T06:55:55;10.13;;;4.63;;
18647;SDS011;9453;50.294;18.644;2022-09-12T06:58:23;9.03;;;4.30;;
18647;SDS011;9453;50.294;18.644;2022-09-12T07:00:49;11.00;;;4.43;;
18647;SDS011;9453;50.294;18.644;2022-09-12T07:03:16;13.50;;;4.37;;
18647;SDS011;9453;50.294;18.644;2022-09-12T07:05:44;10.40;;;5.37;;
18647;SDS011;9453;50.294;18.644;2022-09-12T07:08:11;8.13;;;3.63;;
18647;SDS011;9453;50.294;18.644;2022-09-12T07:10:39;12.37;;;6.80;;
18647;SDS011;9453;50.294;18.644;2022-09-12T07:13:06;5.30;;;3.40;;
18647;SDS011;9453;50.294;18.644;2022-09-12T07:15:33;7.20;;;3.97;;
18647;SDS011;9453;50.294;18.644;2022-09-12T07:18:01;11.53;;;3.70;;
18647;SDS011;9453;50.294;18.644;2022-09-12T07:20:28;8.23;;;3.40;;
18647;SDS011;9453;50.294;18.644;2022-09-12T07:22:57;7.03;;;3.20;;
18647;SDS011;9453;50.294;18.644;2022-09-12T07:25:24;8.53;;;3.20;;
18647;SDS011;9453;50.294;18.644;2022-09-12T07:27:52;8.00;;;3.73;;
18647;SDS011;9453;50.294;18.644;2022-09-12T07:30:19;8.40;;;3.33;;
18647;SDS011;9453;50.294;18.644;2022-09-12T07:32:50;14.27;;;3.40;;
18647;SDS011;9453;50.294;18.644;2022-09-12T07:35:17;4.30;;;2.97;;
18647;SDS011;9453;50.294;18.644;2022-09-12T07:37:44;5.03;;;2.80;;
18647;SDS011;9453;50.294;18.644;2022-09-12T07:40:11;9.40;;;2.57;;
18647;SDS011;9453;50.294;18.644;2022-09-12T07:42:38;4.50;;;2.30;;
18647;SDS011;9453;50.294;18.644;2022-09-12T07:45:07;6.18;;;2.10;;
18647;SDS011;9453;50.294;18.644;2022-09-12T07:47:35;5.55;;;2.13;;
18647;SDS011;9453;50.294;18.644;2022-09-12T07:50:01;4.57;;;2.20;;
18647;SDS011;9453;50.294;18.644;2022-09-12T07:52:29;5.87;;;2.10;;
18647;SDS011;9453;50.294;18.644;2022-09-12T07:54:56;4.60;;;1.88;;
18647;SDS011;9453;50.294;18.644;2022-09-12T07:57:23;5.65;;;2.45;;
18647;SDS011;9453;50.294;18.644;2022-09-12T07:59:49;3.70;;;1.80;;
18647;SDS011;9453;50.294;18.644;2022-09-12T08:02:18;8.70;;;2.10;;
18647;SDS011;9453;50.294;18.644;2022-09-12T08:04:45;7.65;;;2.03;;
18647;SDS011;9453;50.294;18.644;2022-09-12T08:07:13;4.13;;;1.83;;
18647;SDS011;9453;50.294;18.644;2022-09-12T08:09:40;3.38;;;1.40;;
18647;SDS011;9453;50.294;18.644;2022-09-12T08:12:06;3.88;;;1.83;;
18647;SDS011;9453;50.294;18.644;2022-09-12T08:14:34;4.20;;;1.48;;
18647;SDS011;9453;50.294;18.644;2022-09-12T08:17:01;4.40;;;1.65;;
18647;SDS011;9453;50.294;18.644;2022-09-12T08:19:29;4.88;;;1.88;;
18647;SDS011;9453;50.294;18.644;2022-09-12T08:21:56;6.38;;;1.80;;
18647;SDS011;9453;50.294;18.644;2022-09-12T08:24:23;6.65;;;1.60;;
18647;SDS011;9453;50.294;18.644;2022-09-12T08:26:50;4.40;;;1.90;;
18647;SDS011;9453;50.294;18.644;2022-09-12T08:29:17;5.03;;;2.13;;
18647;SDS011;9453;50.294;18.644;2022-09-12T08:31:43;4.68;;;2.05;;
18647;SDS011;9453;50.294;18.644;2022-09-12T08:34:10;4.75;;;1.65;;
18647;SDS011;9453;50.294;18.644;2022-09-12T08:36:39;5.38;;;2.20;;
18647;SDS011;9453;50.294;18.644;2022-09-12T08:39:06;7.55;;;1.98;;
18647;SDS011;9453;50.294;18.644;2022-09-12T08:41:34;5.22;;;1.90;;
18647;SDS011;9453;50.294;18.644;2022-09-12T08:44:10;4.10;;;1.77;;
18647;SDS011;9453;50.294;18.644;2022-09-12T08:47:07;5.13;;;1.58;;
18647;SDS011;9453;50.294;18.644;2022-09-12T08:49:44;2.40;;;1.35;;
18647;SDS011;9453;50.294;18.644;2022-09-12T08:52:21;4.15;;;1.23;;
18647;SDS011;9453;50.294;18.644;2022-09-12T08:54:52;7.50;;;1.88;;
18647;SDS011;9453;50.294;18.644;2022-09-12T08:57:20;7.88;;;1.92;;
18647;SDS011;9453;50.294;18.644;2022-09-12T08:59:48;4.30;;;1.85;;
18647;SDS011;9453;50.294;18.644;2022-09-12T09:05:16;4.22;;;1.67;;
18647;SDS011;9453;50.294;18.644;2022-09-12T09:07:57;2.55;;;1.50;;
18647;SDS011;9453;50.294;18.644;2022-09-12T09:10:39;3.60;;;1.60;;
18647;SDS011;9453;50.294;18.644;2022-09-12T09:13:14;3.72;;;1.75;;
18647;SDS011;9453;50.294;18.644;2022-09-12T09:16:04;4.63;;;1.70;;
18647;SDS011;9453;50.294;18.644;2022-09-12T09:18:39;5.82;;;1.50;;
18647;SDS011;9453;50.294;18.644;2022-09-12T09:21:11;4.28;;;2.00;;
18647;SDS011;9453;50.294;18.644;2022-09-12T09:23:48;3.90;;;1.40;;
18647;SDS011;9453;50.294;18.644;2022-09-12T09:26:19;3.47;;;1.55;;
18647;SDS011;9453;50.294;18.644;2022-09-12T09:28:51;2.45;;;1.33;;
18647;SDS011;9453;50.294;18.644;2022-09-12T09:31:23;3.00;;;1.40;;
18647;SDS011;9453;50.294;18.644;2022-09-12T09:33:52;3.88;;;1.63;;
18647;SDS011;9453;50.294;18.644;2022-09-12T09:36:20;2.83;;;1.65;;
18647;SDS011;9453;50.294;18.644;2022-09-12T09:38:52;3.55;;;1.60;;
18647;SDS011;9453;50.294;18.644;2022-09-12T09:41:34;5.47;;;1.80;;
18647;SDS011;9453;50.294;18.644;2022-09-12T09:44:09;3.22;;;1.50;;
18647;SDS011;9453;50.294;18.644;2022-09-12T09:46:37;3.70;;;1.30;;
18647;SDS011;9453;50.294;18.644;2022-09-12T09:49:04;4.90;;;1.48;;
18647;SDS011;9453;50.294;18.644;2022-09-12T09:51:33;3.45;;;1.40;;
18647;SDS011;9453;50.294;18.644;2022-09-12T09:54:04;3.97;;;1.48;;
18647;SDS011;9453;50.294;18.644;2022-09-12T09:56:42;4.10;;;1.30;;
18647;SDS011;9453;50.294;18.644;2022-09-12T09:59:11;4.57;;;1.70;;
18647;SDS011;9453;50.294;18.644;2022-09-12T10:01:43;2.92;;;1.40;;
18647;SDS011;9453;50.294;18.644;2022-09-12T10:04:18;3.17;;;1.35;;
18647;SDS011;9453;50.294;18.644;2022-09-12T10:06:46;1.67;;;1.20;;
18647;SDS011;9453;50.294;18.644;2022-09-12T10:09:25;2.25;;;1.30;;
18647;SDS011;9453;50.294;18.644;2022-09-12T10:11:53;4.63;;;1.77;;
18647;SDS011;9453;50.294;18.644;2022-09-12T10:14:28;5.88;;;1.60;;
18647;SDS011;9453;50.294;18.644;2022-09-12T10:17:01;4.13;;;1.50;;
18647;SDS011;9453;50.294;18.644;2022-09-12T10:19:32;2.58;;;1.42;;
18647;SDS011;9453;50.294;18.644;2022-09-12T10:22:01;3.97;;;1.40;;
18647;SDS011;9453;50.294;18.644;2022-09-12T10:24:31;2.67;;;1.40;;
18647;SDS011;9453;50.294;18.644;2022-09-12T10:27:08;4.82;;;1.42;;
18647;SDS011;9453;50.294;18.644;2022-09-12T10:29:42;5.00;;;1.50;;
18647;SDS011;9453;50.294;18.644;2022-09-12T10:32:12;7.35;;;1.52;;
18647;SDS011;9453;50.294;18.644;2022-09-12T10:34:47;5.80;;;1.38;;
18647;SDS011;9453;50.294;18.644;2022-09-12T10:37:18;2.80;;;1.50;;
18647;SDS011;9453;50.294;18.644;2022-09-12T10:39:52;4.05;;;1.10;;
18647;SDS011;9453;50.294;18.644;2022-09-12T10:45:18;4.57;;;1.77;;
18647;SDS011;9453;50.294;18.644;2022-09-12T10:47:49;2.75;;;1.48;;
18647;SDS011;9453;50.294;18.644;2022-09-12T10:50:20;4.95;;;1.85;;
18647;SDS011;9453;50.294;18.644;2022-09-12T10:52:50;2.55;;;1.30;;
18647;SDS011;9453;50.294;18.644;2022-09-12T10:55:18;3.38;;;1.60;;
18647;SDS011;9453;50.294;18.644;2022-09-12T10:57:56;2.47;;;1.50;;
18647;SDS011;9453;50.294;18.644;2022-09-12T11:00:31;3.80;;;1.20;;
18647;SDS011;9453;50.294;18.644;2022-09-12T11:03:08;5.22;;;1.60;;
18647;SDS011;9453;50.294;18.644;2022-09-12T11:05:44;6.63;;;1.73;;
18647;SDS011;9453;50.294;18.644;2022-09-12T11:08:22;4.07;;;1.38;;
18647;SDS011;9453;50.294;18.644;2022-09-12T11:10:58;4.60;;;1.73;;
18647;SDS011;9453;50.294;18.644;2022-09-12T11:13:44;6.18;;;1.50;;
18647;SDS011;9453;50.294;18.644;2022-09-12T11:16:21;2.35;;;1.33;;
18647;SDS011;9453;50.294;18.644;2022-09-12T11:19:05;2.60;;;1.30;;
18647;SDS011;9453;50.294;18.644;2022-09-12T11:21:44;2.75;;;1.60;;
18647;SDS011;9453;50.294;18.644;2022-09-12T11:24:35;10.52;;;2.30;;
18647;SDS011;9453;50.294;18.644;2022-09-12T11:27:19;9.02;;;1.80;;
18647;SDS011;9453;50.294;18.644;2022-09-12T11:29:57;2.53;;;1.50;;
18647;SDS011;9453;50.294;18.644;2022-09-12T11:32:37;6.43;;;1.63;;
18647;SDS011;9453;50.294;18.644;2022-09-12T11:35:19;2.50;;;1.50;;
18647;SDS011;9453;50.294;18.644;2022-09-12T11:40:53;9.98;;;2.10;;
18647;SDS011;9453;50.294;18.644;2022-09-12T11:43:24;5.13;;;1.40;;
18647;SDS011;9453;50.294;18.644;2022-09-12T11:46:00;3.17;;;1.40;;
18647;SDS011;9453;50.294;18.644;2022-09-12T11:48:37;5.28;;;1.65;;
18647;SDS011;9453;50.294;18.644;2022-09-12T11:51:15;3.13;;;1.75;;
18647;SDS011;9453;50.294;18.644;2022-09-12T11:53:45;2.65;;;1.75;;
18647;SDS011;9453;50.294;18.644;2022-09-12T11:56:25;5.63;;;1.38;;
18647;SDS011;9453;50.294;18.644;2022-09-12T11:58:56;4.10;;;1.60;;
18647;SDS011;9453;50.294;18.644;2022-09-12T12:01:30;2.53;;;1.30;;
18647;SDS011;9453;50.294;18.644;2022-09-12T12:04:00;1.98;;;1.27;;
18647;SDS011;9453;50.294;18.644;2022-09-12T12:06:36;2.30;;;1.40;;
18647;SDS011;9453;50.294;18.644;2022-09-12T12:09:12;3.13;;;1.50;;
18647;SDS011;9453;50.294;18.644;2022-09-12T12:11:40;4.97;;;1.65;;
18647;SDS011;9453;50.294;18.644;2022-09-12T12:14:13;3.28;;;1.52;;
18647;SDS011;9453;50.294;18.644;2022-09-12T12:16:43;7.13;;;1.83;;
18647;SDS011;9453;50.294;18.644;2022-09-12T12:19:21;3.10;;;1.45;;
18647;SDS011;9453;50.294;18.644;2022-09-12T12:22:02;9.60;;;1.33;;
18647;SDS011;9453;50.294;18.644;2022-09-12T12:24:33;3.67;;;1.80;;
18647;SDS011;9453;50.294;18.644;2022-09-12T12:27:00;8.85;;;1.60;;
18647;SDS011;9453;50.294;18.644;2022-09-12T12:29:44;3.47;;;1.38;;
18647;SDS011;9453;50.294;18.644;2022-09-12T12:32:18;3.40;;;1.63;;
18647;SDS011;9453;50.294;18.644;2022-09-12T12:34:47;3.95;;;1.70;;
18647;SDS011;9453;50.294;18.644;2022-09-12T12:40:22;3.30;;;1.50;;
18647;SDS011;9453;50.294;18.644;2022-09-12T12:43:00;7.93;;;1.25;;
18647;SDS011;9453;50.294;18.644;2022-09-12T12:48:26;2.95;;;1.65;;
18647;SDS011;9453;50.294;18.644;2022-09-12T12:53:51;5.00;;;1.23;;
18647;SDS011;9453;50.294;18.644;2022-09-12T12:56:26;2.63;;;1.30;;
18647;SDS011;9453;50.294;18.644;2022-09-12T12:59:10;3.85;;;1.45;;
18647;SDS011;9453;50.294;18.644;2022-09-12T13:01:47;2.47;;;1.73;;
18647;SDS011;9453;50.294;18.644;2022-09-12T13:04:17;4.53;;;1.60;;
18647;SDS011;9453;50.294;18.644;2022-09-12T13:06:46;6.35;;;1.60;;
18647;SDS011;9453;50.294;18.644;2022-09-12T13:09:24;10.77;;;2.40;;
18647;SDS011;9453;50.294;18.644;2022-09-12T13:11:57;2.90;;;1.77;;
18647;SDS011;9453;50.294;18.644;2022-09-12T13:14:32;4.10;;;1.52;;
18647;SDS011;9453;50.294;18.644;2022-09-12T13:17:15;4.97;;;1.50;;
18647;SDS011;9453;50.294;18.644;2022-09-12T13:19:48;3.35;;;1.50;;
18647;SDS011;9453;50.294;18.644;2022-09-12T13:22:17;4.50;;;1.80;;
18647;SDS011;9453;50.294;18.644;2022-09-12T13:24:48;4.00;;;1.45;;
18647;SDS011;9453;50.294;18.644;2022-09-12T13:27:17;5.57;;;1.40;;
18647;SDS011;9453;50.294;18.644;2022-09-12T13:29:45;7.18;;;1.80;;
18647;SDS011;9453;50.294;18.644;2022-09-12T13:32:12;4.00;;;1.40;;
18647;SDS011;9453;50.294;18.644;2022-09-12T13:34:45;5.10;;;1.63;;
18647;SDS011;9453;50.294;18.644;2022-09-12T13:37:39;4.03;;;1.40;;
18647;SDS011;9453;50.294;18.644;2022-09-12T13:40:23;2.47;;;1.77;;
18647;SDS011;9453;50.294;18.644;2022-09-12T13:45:50;2.90;;;1.50;;
18647;SDS011;9453;50.294;18.644;2022-09-12T13:48:20;6.80;;;1.98;;
18647;SDS011;9453;50.294;18.644;2022-09-12T13:50:51;4.40;;;1.80;;
18647;SDS011;9453;50.294;18.644;2022-09-12T13:53:21;3.70;;;1.60;;
18647;SDS011;9453;50.294;18.644;2022-09-12T13:55:51;3.20;;;1.67;;
18647;SDS011;9453;50.294;18.644;2022-09-12T13:58:21;12.93;;;1.77;;
18647;SDS011;9453;50.294;18.644;2022-09-12T14:00:59;2.20;;;1.42;;
18647;SDS011;9453;50.294;18.644;2022-09-12T14:03:29;4.78;;;1.52;;
18647;SDS011;9453;50.294;18.644;2022-09-12T14:06:14;4.80;;;1.33;;
18647;SDS011;9453;50.294;18.644;2022-09-12T14:08:43;4.57;;;1.27;;
18647;SDS011;9453;50.294;18.644;2022-09-12T14:11:16;3.90;;;1.30;;
18647;SDS011;9453;50.294;18.644;2022-09-12T14:13:49;3.80;;;1.60;;
18647;SDS011;9453;50.294;18.644;2022-09-12T14:16:16;4.72;;;1.50;;
18647;SDS011;9453;50.294;18.644;2022-09-12T14:18:46;3.78;;;1.35;;
18647;SDS011;9453;50.294;18.644;2022-09-12T14:21:16;5.00;;;1.58;;
18647;SDS011;9453;50.294;18.644;2022-09-12T14:23:55;2.13;;;1.20;;
18647;SDS011;9453;50.294;18.644;2022-09-12T14:26:23;4.80;;;1.33;;
18647;SDS011;9453;50.294;18.644;2022-09-12T14:28:52;4.85;;;1.33;;
18647;SDS011;9453;50.294;18.644;2022-09-12T14:31:21;7.47;;;1.45;;
18647;SDS011;9453;50.294;18.644;2022-09-12T14:33:52;5.65;;;1.92;;
18647;SDS011;9453;50.294;18.644;2022-09-12T14:36:22;1.77;;;1.13;;
18647;SDS011;9453;50.294;18.644;2022-09-12T14:38:51;2.17;;;1.40;;
18647;SDS011;9453;50.294;18.644;2022-09-12T14:41:21;6.75;;;1.52;;
18647;SDS011;9453;50.294;18.644;2022-09-12T14:43:51;5.78;;;1.73;;
18647;SDS011;9453;50.294;18.644;2022-09-12T14:46:22;4.35;;;1.70;;
18647;SDS011;9453;50.294;18.644;2022-09-12T14:48:54;4.65;;;1.95;;
18647;SDS011;9453;50.294;18.644;2022-09-12T14:51:24;3.63;;;1.85;;
18647;SDS011;9453;50.294;18.644;2022-09-12T14:53:53;6.38;;;1.85;;
18647;SDS011;9453;50.294;18.644;2022-09-12T14:56:21;3.08;;;1.50;;
18647;SDS011;9453;50.294;18.644;2022-09-12T14:59:19;5.10;;;1.70;;
18647;SDS011;9453;50.294;18.644;2022-09-12T15:04:48;3.17;;;1.50;;
18647;SDS011;9453;50.294;18.644;2022-09-12T15:07:24;3.33;;;1.20;;
18647;SDS011;9453;50.294;18.644;2022-09-12T15:09:57;7.38;;;2.15;;
18647;SDS011;9453;50.294;18.644;2022-09-12T15:12:27;2.40;;;1.20;;
18647;SDS011;9453;50.294;18.644;2022-09-12T15:14:55;4.63;;;1.58;;
18647;SDS011;9453;50.294;18.644;2022-09-12T15:17:25;3.55;;;1.33;;
18647;SDS011;9453;50.294;18.644;2022-09-12T15:19:53;8.27;;;1.60;;
18647;SDS011;9453;50.294;18.644;2022-09-12T15:22:20;8.02;;;1.30;;
18647;SDS011;9453;50.294;18.644;2022-09-12T15:24:50;4.95;;;1.48;;
18647;SDS011;9453;50.294;18.644;2022-09-12T15:27:17;1.98;;;1.27;;
18647;SDS011;9453;50.294;18.644;2022-09-12T15:29:44;4.32;;;1.58;;
18647;SDS011;9453;50.294;18.644;2022-09-12T15:32:21;3.30;;;1.55;;
18647;SDS011;9453;50.294;18.644;2022-09-12T15:34:48;3.15;;;1.50;;
18647;SDS011;9453;50.294;18.644;2022-09-12T15:37:17;3.83;;;1.67;;
18647;SDS011;9453;50.294;18.644;2022-09-12T15:39:45;6.35;;;1.55;;
18647;SDS011;9453;50.294;18.644;2022-09-12T15:42:12;5.20;;;1.63;;
18647;SDS011;9453;50.294;18.644;2022-09-12T15:44:39;4.32;;;1.33;;
18647;SDS011;9453;50.294;18.644;2022-09-12T15:47:07;3.97;;;1.25;;
18647;SDS011;9453;50.294;18.644;2022-09-12T15:49:38;2.38;;;1.13;;
18647;SDS011;9453;50.294;18.644;2022-09-12T15:52:06;5.60;;;1.20;;
18647;SDS011;9453;50.294;18.644;2022-09-12T15:54:36;4.35;;;1.35;;
18647;SDS011;9453;50.294;18.644;2022-09-12T15:57:03;3.75;;;1.70;;
18647;SDS011;9453;50.294;18.644;2022-09-12T15:59:30;9.68;;;1.95;;
18647;SDS011;9453;50.294;18.644;2022-09-12T16:02:02;4.20;;;1.50;;
18647;SDS011;9453;50.294;18.644;2022-09-12T16:04:30;2.28;;;1.60;;
18647;SDS011;9453;50.294;18.644;2022-09-12T16:06:57;5.20;;;1.30;;
18647;SDS011;9453;50.294;18.644;2022-09-12T16:09:30;2.85;;;1.45;;
18647;SDS011;9453;50.294;18.644;2022-09-12T16:12:07;4.95;;;1.55;;
18647;SDS011;9453;50.294;18.644;2022-09-12T16:14:34;3.65;;;1.55;;
18647;SDS011;9453;50.294;18.644;2022-09-12T16:17:01;3.80;;;1.70;;
18647;SDS011;9453;50.294;18.644;2022-09-12T16:19:28;6.97;;;1.80;;
18647;SDS011;9453;50.294;18.644;2022-09-12T16:21:55;1.60;;;1.25;;
18647;SDS011;9453;50.294;18.644;2022-09-12T16:24:22;3.22;;;1.70;;
18647;SDS011;9453;50.294;18.644;2022-09-12T16:26:49;2.55;;;1.50;;
18647;SDS011;9453;50.294;18.644;2022-09-12T16:29:19;2.72;;;1.50;;
18647;SDS011;9453;50.294;18.644;2022-09-12T16:31:46;3.90;;;1.85;;
18647;SDS011;9453;50.294;18.644;2022-09-12T16:34:13;3.25;;;1.80;;
18647;SDS011;9453;50.294;18.644;2022-09-12T16:36:40;5.53;;;1.65;;
18647;SDS011;9453;50.294;18.644;2022-09-12T16:39:09;3.10;;;1.80;;
18647;SDS011;9453;50.294;18.644;2022-09-12T16:41:36;3.72;;;1.50;;
18647;SDS011;9453;50.294;18.644;2022-09-12T16:44:06;3.85;;;1.95;;
18647;SDS011;9453;50.294;18.644;2022-09-12T16:46:35;4.03;;;1.75;;
18647;SDS011;9453;50.294;18.644;2022-09-12T16:49:03;7.03;;;2.58;;
18647;SDS011;9453;50.294;18.644;2022-09-12T16:51:31;4.03;;;2.00;;
18647;SDS011;9453;50.294;18.644;2022-09-12T16:54:00;1.83;;;1.40;;
18647;SDS011;9453;50.294;18.644;2022-09-12T16:56:28;2.78;;;1.83;;
18647;SDS011;9453;50.294;18.644;2022-09-12T16:58:55;3.78;;;1.70;;
18647;SDS011;9453;50.294;18.644;2022-09-12T17:01:22;4.25;;;2.13;;
18647;SDS011;9453;50.294;18.644;2022-09-12T17:03:52;4.07;;;1.98;;
18647;SDS011;9453;50.294;18.644;2022-09-12T17:06:20;4.20;;;2.17;;
18647;SDS011;9453;50.294;18.644;2022-09-12T17:08:48;3.97;;;2.10;;
18647;SDS011;9453;50.294;18.644;2022-09-12T17:11:17;3.38;;;1.88;;
18647;SDS011;9453;50.294;18.644;2022-09-12T17:13:46;4.15;;;1.60;;
18647;SDS011;9453;50.294;18.644;2022-09-12T17:16:18;2.97;;;1.80;;
18647;SDS011;9453;50.294;18.644;2022-09-12T17:18:46;4.45;;;2.08;;
18647;SDS011;9453;50.294;18.644;2022-09-12T17:21:14;3.58;;;1.88;;
18647;SDS011;9453;50.294;18.644;2022-09-12T17:23:41;4.88;;;3.00;;
18647;SDS011;9453;50.294;18.644;2022-09-12T17:26:09;5.78;;;2.95;;
18647;SDS011;9453;50.294;18.644;2022-09-12T17:28:37;4.07;;;2.67;;
18647;SDS011;9453;50.294;18.644;2022-09-12T17:31:05;4.25;;;2.70;;
18647;SDS011;9453;50.294;18.644;2022-09-12T17:33:33;4.57;;;2.35;;
18647;SDS011;9453;50.294;18.644;2022-09-12T17:36:00;3.67;;;2.28;;
18647;SDS011;9453;50.294;18.644;2022-09-12T17:38:31;4.70;;;2.58;;
18647;SDS011;9453;50.294;18.644;2022-09-12T17:41:03;3.50;;;2.20;;
18647;SDS011;9453;50.294;18.644;2022-09-12T17:43:31;3.47;;;2.22;;
18647;SDS011;9453;50.294;18.644;2022-09-12T17:45:58;4.85;;;2.50;;
18647;SDS011;9453;50.294;18.644;2022-09-12T17:48:25;4.15;;;2.63;;
18647;SDS011;9453;50.294;18.644;2022-09-12T17:50:51;3.85;;;2.53;;
18647;SDS011;9453;50.294;18.644;2022-09-12T17:53:18;3.35;;;2.47;;
18647;SDS011;9453;50.294;18.644;2022-09-12T17:55:47;4.25;;;2.38;;
18647;SDS011;9453;50.294;18.644;2022-09-12T17:58:14;3.42;;;2.33;;
18647;SDS011;9453;50.294;18.644;2022-09-12T18:00:41;3.67;;;2.63;;
18647;SDS011;9453;50.294;18.644;2022-09-12T18:03:26;4.65;;;2.50;;
18647;SDS011;9453;50.294;18.644;2022-09-12T18:05:54;4.63;;;2.20;;
18647;SDS011;9453;50.294;18.644;2022-09-12T18:08:21;4.00;;;2.20;;
18647;SDS011;9453;50.294;18.644;2022-09-12T18:10:51;4.00;;;2.15;;
18647;SDS011;9453;50.294;18.644;2022-09-12T18:13:18;3.08;;;2.08;;
18647;SDS011;9453;50.294;18.644;2022-09-12T18:15:44;5.22;;;2.70;;
18647;SDS011;9453;50.294;18.644;2022-09-12T18:18:12;5.18;;;2.67;;
18647;SDS011;9453;50.294;18.644;2022-09-12T18:20:40;4.43;;;2.50;;
18647;SDS011;9453;50.294;18.644;2022-09-12T18:23:15;4.97;;;2.65;;
18647;SDS011;9453;50.294;18.644;2022-09-12T18:25:42;5.38;;;2.53;;
18647;SDS011;9453;50.294;18.644;2022-09-12T18:28:10;5.32;;;3.13;;
18647;SDS011;9453;50.294;18.644;2022-09-12T18:30:37;3.40;;;2.40;;
18647;SDS011;9453;50.294;18.644;2022-09-12T18:33:06;5.25;;;2.80;;
18647;SDS011;9453;50.294;18.644;2022-09-12T18:35:33;3.45;;;2.28;;
18647;SDS011;9453;50.294;18.644;2022-09-12T18:38:03;4.85;;;2.40;;
18647;SDS011;9453;50.294;18.644;2022-09-12T18:40:30;6.03;;;2.83;;
18647;SDS011;9453;50.294;18.644;2022-09-12T18:42:57;8.15;;;3.88;;
18647;SDS011;9453;50.294;18.644;2022-09-12T18:45:25;7.30;;;4.72;;
18647;SDS011;9453;50.294;18.644;2022-09-12T18:47:52;10.00;;;4.60;;
18647;SDS011;9453;50.294;18.644;2022-09-12T18:50:20;8.02;;;4.97;;
18647;SDS011;9453;50.294;18.644;2022-09-12T18:52:50;7.10;;;4.78;;
18647;SDS011;9453;50.294;18.644;2022-09-12T18:55:17;7.90;;;5.38;;
18647;SDS011;9453;50.294;18.644;2022-09-12T18:57:44;14.98;;;6.13;;
18647;SDS011;9453;50.294;18.644;2022-09-12T19:00:11;7.55;;;5.10;;
18647;SDS011;9453;50.294;18.644;2022-09-12T19:02:40;8.57;;;5.63;;
18647;SDS011;9453;50.294;18.644;2022-09-12T19:05:08;9.35;;;5.43;;
18647;SDS011;9453;50.294;18.644;2022-09-12T19:07:37;11.18;;;5.47;;
18647;SDS011;9453;50.294;18.644;2022-09-12T19:10:04;6.95;;;4.75;;
18647;SDS011;9453;50.294;18.644;2022-09-12T19:12:32;9.38;;;5.05;;
18647;SDS011;9453;50.294;18.644;2022-09-12T19:14:59;7.22;;;4.57;;
18647;SDS011;9453;50.294;18.644;2022-09-12T19:17:26;8.85;;;5.18;;
18647;SDS011;9453;50.294;18.644;2022-09-12T19:19:55;8.60;;;4.80;;
18647;SDS011;9453;50.294;18.644;2022-09-12T19:22:22;12.70;;;5.13;;
18647;SDS011;9453;50.294;18.644;2022-09-12T19:24:49;8.95;;;4.93;;
18647;SDS011;9453;50.294;18.644;2022-09-12T19:27:16;6.05;;;3.90;;
18647;SDS011;9453;50.294;18.644;2022-09-12T19:29:42;7.80;;;4.85;;